sensor_id;sensor_type;location;lat;lon;timestamp;temperature;humidity
7498;DHT22;3790;48.806;9.140;2023-07-29T00:03:13;17.70;99.90
7498;DHT22;3790;48.806;9.140;2023-07-29T00:08:13;17.80;99.90
7498;DHT22;3790;48.806;9.140;2023-07-29T00:13:14;17.80;99.90
7498;DHT22;3790;48.806;9.140;2023-07-29T00:18:17;17.80;99.90
7498;DHT22;3790;48.806;9.140;2023-07-29T00:23:18;17.80;99.90
7498;DHT22;3790;48.806;9.140;2023-07-29T00:28:21;17.90;99.90
7498;DHT22;3790;48.806;9.140;2023-07-29T00:33:22;17.90;99.90
7498;DHT22;3790;48.806;9.140;2023-07-29T00:38:22;17.90;99.90
7498;DHT22;3790;48.806;9.140;2023-07-29T00:43:23;18.10;99.90
7498;DHT22;3790;48.806;9.140;2023-07-29T00:48:25;18.10;99.90
7498;DHT22;3790;48.806;9.140;2023-07-29T00:53:26;18.10;99.90
7498;DHT22;3790;48.806;9.140;2023-07-29T00:58:26;18.10;99.90
7498;DHT22;3790;48.806;9.140;2023-07-29T01:03:27;18.00;99.90
7498;DHT22;3790;48.806;9.140;2023-07-29T01:08:35;18.00;99.90
7498;DHT22;3790;48.806;9.140;2023-07-29T01:13:44;17.90;99.90
7498;DHT22;3790;48.806;9.140;2023-07-29T01:18:50;17.90;99.90
7498;DHT22;3790;48.806;9.140;2023-07-29T01:23:53;18.00;99.90
7498;DHT22;3790;48.806;9.140;2023-07-29T01:28:54;18.10;99.90
7498;DHT22;3790;48.806;9.140;2023-07-29T01:39:21;18.10;99.90
7498;DHT22;3790;48.806;9.140;2023-07-29T01:44:26;18.20;99.90
7498;DHT22;3790;48.806;9.140;2023-07-29T01:49:27;18.30;99.90
7498;DHT22;3790;48.806;9.140;2023-07-29T01:54:28;18.20;99.90
7498;DHT22;3790;48.806;9.140;2023-07-29T01:59:28;18.20;99.90
7498;DHT22;3790;48.806;9.140;2023-07-29T02:04:29;18.20;99.90
7498;DHT22;3790;48.806;9.140;2023-07-29T02:09:29;18.20;99.90
7498;DHT22;3790;48.806;9.140;2023-07-29T02:14:31;18.10;99.90
7498;DHT22;3790;48.806;9.140;2023-07-29T02:19:31;18.10;99.90
7498;DHT22;3790;48.806;9.140;2023-07-29T02:24:32;18.10;99.90
7498;DHT22;3790;48.806;9.140;2023-07-29T02:29:32;18.00;99.90
7498;DHT22;3790;48.806;9.140;2023-07-29T02:34:33;17.90;99.90
7498;DHT22;3790;48.806;9.140;2023-07-29T02:39:34;17.90;99.90
7498;DHT22;3790;48.806;9.140;2023-07-29T02:44:34;17.90;99.90
7498;DHT22;3790;48.806;9.140;2023-07-29T02:49:37;17.90;99.90
7498;DHT22;3790;48.806;9.140;2023-07-29T02:54:38;17.90;99.90
7498;DHT22;3790;48.806;9.140;2023-07-29T02:59:38;18.00;99.90
7498;DHT22;3790;48.806;9.140;2023-07-29T03:04:39;18.00;99.90
7498;DHT22;3790;48.806;9.140;2023-07-29T03:09:39;18.10;99.90
7498;DHT22;3790;48.806;9.140;2023-07-29T03:14:42;18.10;99.90
7498;DHT22;3790;48.806;9.140;2023-07-29T03:19:42;18.00;99.90
7498;DHT22;3790;48.806;9.140;2023-07-29T03:24:43;18.00;99.90
7498;DHT22;3790;48.806;9.140;2023-07-29T03:29:43;17.90;99.90
7498;DHT22;3790;48.806;9.140;2023-07-29T03:34:44;17.90;99.90
7498;DHT22;3790;48.806;9.140;2023-07-29T03:39:44;17.90;99.90
7498;DHT22;3790;48.806;9.140;2023-07-29T03:44:45;17.80;99.90
7498;DHT22;3790;48.806;9.140;2023-07-29T03:49:45;17.80;99.90
7498;DHT22;3790;48.806;9.140;2023-07-29T03:54:46;17.90;99.90
7498;DHT22;3790;48.806;9.140;2023-07-29T03:59:46;18.00;99.90
7498;DHT22;3790;48.806;9.140;2023-07-29T04:04:47;18.00;99.90
7498;DHT22;3790;48.806;9.140;2023-07-29T04:09:48;17.90;99.90
7498;DHT22;3790;48.806;9.140;2023-07-29T04:14:49;17.90;99.90
7498;DHT22;3790;48.806;9.140;2023-07-29T04:19:50;17.80;99.90
7498;DHT22;3790;48.806;9.140;2023-07-29T04:24:50;17.80;99.90
7498;DHT22;3790;48.806;9.140;2023-07-29T04:29:51;17.80;99.90
7498;DHT22;3790;48.806;9.140;2023-07-29T04:34:51;17.80;99.90
7498;DHT22;3790;48.806;9.140;2023-07-29T04:39:52;17.70;99.90
7498;DHT22;3790;48.806;9.140;2023-07-29T04:44:52;17.70;99.90
7498;DHT22;3790;48.806;9.140;2023-07-29T04:49:53;17.60;99.90
7498;DHT22;3790;48.806;9.140;2023-07-29T04:54:53;17.50;99.90
7498;DHT22;3790;48.806;9.140;2023-07-29T04:59:54;17.50;99.90
7498;DHT22;3790;48.806;9.140;2023-07-29T05:04:54;17.60;99.90
7498;DHT22;3790;48.806;9.140;2023-07-29T05:09:55;17.60;99.90
7498;DHT22;3790;48.806;9.140;2023-07-29T05:14:55;17.70;99.90
7498;DHT22;3790;48.806;9.140;2023-07-29T05:19:56;17.70;99.90
7498;DHT22;3790;48.806;9.140;2023-07-29T05:24:56;17.80;99.90
7498;DHT22;3790;48.806;9.140;2023-07-29T05:29:57;18.00;99.90
7498;DHT22;3790;48.806;9.140;2023-07-29T05:34:57;18.20;99.90
7498;DHT22;3790;48.806;9.140;2023-07-29T05:39:58;18.30;99.90
7498;DHT22;3790;48.806;9.140;2023-07-29T05:44:58;18.40;99.90
7498;DHT22;3790;48.806;9.140;2023-07-29T05:49:59;18.40;99.90
7498;DHT22;3790;48.806;9.140;2023-07-29T05:55:02;18.60;99.90
7498;DHT22;3790;48.806;9.140;2023-07-29T06:00:03;18.90;99.90
7498;DHT22;3790;48.806;9.140;2023-07-29T06:05:04;19.20;99.90
7498;DHT22;3790;48.806;9.140;2023-07-29T06:10:05;19.50;99.90
7498;DHT22;3790;48.806;9.140;2023-07-29T06:15:06;19.80;99.90
7498;DHT22;3790;48.806;9.140;2023-07-29T06:20:07;20.00;99.90
7498;DHT22;3790;48.806;9.140;2023-07-29T06:25:08;20.10;99.90
7498;DHT22;3790;48.806;9.140;2023-07-29T06:30:10;20.10;99.90
7498;DHT22;3790;48.806;9.140;2023-07-29T06:35:11;20.10;99.90
7498;DHT22;3790;48.806;9.140;2023-07-29T06:40:14;20.20;99.90
7498;DHT22;3790;48.806;9.140;2023-07-29T06:45:14;20.20;99.90
7498;DHT22;3790;48.806;9.140;2023-07-29T06:50:15;19.80;99.90
7498;DHT22;3790;48.806;9.140;2023-07-29T06:55:16;19.80;99.90
7498;DHT22;3790;48.806;9.140;2023-07-29T07:00:16;19.70;99.90
7498;DHT22;3790;48.806;9.140;2023-07-29T07:05:17;19.40;99.90
7498;DHT22;3790;48.806;9.140;2023-07-29T07:10:18;19.30;99.90
7498;DHT22;3790;48.806;9.140;2023-07-29T07:15:18;19.20;99.90
7498;DHT22;3790;48.806;9.140;2023-07-29T07:20:19;19.00;99.90
7498;DHT22;3790;48.806;9.140;2023-07-29T07:25:19;19.00;99.90
7498;DHT22;3790;48.806;9.140;2023-07-29T07:30:20;19.00;99.90
7498;DHT22;3790;48.806;9.140;2023-07-29T07:35:20;19.10;99.90
7498;DHT22;3790;48.806;9.140;2023-07-29T07:40:21;19.20;99.90
7498;DHT22;3790;48.806;9.140;2023-07-29T07:45:22;19.40;99.90
7498;DHT22;3790;48.806;9.140;2023-07-29T07:50:22;19.60;99.90
7498;DHT22;3790;48.806;9.140;2023-07-29T07:55:24;19.70;99.90
7498;DHT22;3790;48.806;9.140;2023-07-29T08:00:24;19.80;99.90
7498;DHT22;3790;48.806;9.140;2023-07-29T08:05:25;19.70;99.90
7498;DHT22;3790;48.806;9.140;2023-07-29T08:10:25;20.00;99.90
7498;DHT22;3790;48.806;9.140;2023-07-29T08:15:26;20.30;99.90
7498;DHT22;3790;48.806;9.140;2023-07-29T08:20:26;20.20;99.90
7498;DHT22;3790;48.806;9.140;2023-07-29T08:25:28;20.30;99.90
7498;DHT22;3790;48.806;9.140;2023-07-29T08:30:31;20.30;99.90
7498;DHT22;3790;48.806;9.140;2023-07-29T08:35:32;20.30;99.90
7498;DHT22;3790;48.806;9.140;2023-07-29T08:40:34;20.60;99.90
7498;DHT22;3790;48.806;9.140;2023-07-29T08:45:36;20.80;99.90
7498;DHT22;3790;48.806;9.140;2023-07-29T08:50:37;21.00;99.90
7498;DHT22;3790;48.806;9.140;2023-07-29T08:55:38;21.30;99.90
7498;DHT22;3790;48.806;9.140;2023-07-29T09:00:39;21.50;99.90
7498;DHT22;3790;48.806;9.140;2023-07-29T09:05:40;21.80;99.90
7498;DHT22;3790;48.806;9.140;2023-07-29T09:10:41;22.10;99.90
7498;DHT22;3790;48.806;9.140;2023-07-29T09:15:42;22.30;99.90
7498;DHT22;3790;48.806;9.140;2023-07-29T09:20:43;22.40;99.90
7498;DHT22;3790;48.806;9.140;2023-07-29T09:25:46;22.60;99.90
7498;DHT22;3790;48.806;9.140;2023-07-29T09:30:46;22.80;99.90
7498;DHT22;3790;48.806;9.140;2023-07-29T09:35:47;22.90;99.90
7498;DHT22;3790;48.806;9.140;2023-07-29T09:40:48;23.40;99.90
7498;DHT22;3790;48.806;9.140;2023-07-29T09:45:51;23.70;99.90
7498;DHT22;3790;48.806;9.140;2023-07-29T09:50:52;23.30;99.90
7498;DHT22;3790;48.806;9.140;2023-07-29T09:55:53;23.00;99.90
7498;DHT22;3790;48.806;9.140;2023-07-29T10:00:54;23.00;99.90
7498;DHT22;3790;48.806;9.140;2023-07-29T10:05:55;23.10;99.90
7498;DHT22;3790;48.806;9.140;2023-07-29T10:10:58;23.40;99.90
7498;DHT22;3790;48.806;9.140;2023-07-29T10:15:59;23.60;99.90
7498;DHT22;3790;48.806;9.140;2023-07-29T10:21:04;24.00;99.90
7498;DHT22;3790;48.806;9.140;2023-07-29T10:26:07;23.20;99.90
7498;DHT22;3790;48.806;9.140;2023-07-29T10:31:10;22.70;99.90
7498;DHT22;3790;48.806;9.140;2023-07-29T10:36:11;22.00;99.90
7498;DHT22;3790;48.806;9.140;2023-07-29T10:41:12;21.80;99.90
7498;DHT22;3790;48.806;9.140;2023-07-29T10:46:22;21.50;99.90
7498;DHT22;3790;48.806;9.140;2023-07-29T10:51:45;21.40;99.90
7498;DHT22;3790;48.806;9.140;2023-07-29T10:56:49;22.00;99.90
7498;DHT22;3790;48.806;9.140;2023-07-29T11:01:57;22.50;99.90
7498;DHT22;3790;48.806;9.140;2023-07-29T11:12:51;23.30;99.90
7498;DHT22;3790;48.806;9.140;2023-07-29T11:17:27;23.70;99.90
7498;DHT22;3790;48.806;9.140;2023-07-29T11:22:28;24.10;99.90
7498;DHT22;3790;48.806;9.140;2023-07-29T11:27:31;23.70;99.90
7498;DHT22;3790;48.806;9.140;2023-07-29T11:32:33;23.40;99.90
7498;DHT22;3790;48.806;9.140;2023-07-29T11:37:34;23.40;99.90
7498;DHT22;3790;48.806;9.140;2023-07-29T11:42:38;23.60;99.90
7498;DHT22;3790;48.806;9.140;2023-07-29T11:47:39;23.60;99.90
7498;DHT22;3790;48.806;9.140;2023-07-29T11:52:41;23.70;99.90
7498;DHT22;3790;48.806;9.140;2023-07-29T11:57:43;23.90;99.90
7498;DHT22;3790;48.806;9.140;2023-07-29T12:02:44;24.20;99.90
7498;DHT22;3790;48.806;9.140;2023-07-29T12:07:45;24.20;99.90
7498;DHT22;3790;48.806;9.140;2023-07-29T12:12:47;24.40;99.90
7498;DHT22;3790;48.806;9.140;2023-07-29T12:17:48;24.60;99.90
7498;DHT22;3790;48.806;9.140;2023-07-29T12:22:56;25.00;99.90
7498;DHT22;3790;48.806;9.140;2023-07-29T12:28:01;25.50;99.90
7498;DHT22;3790;48.806;9.140;2023-07-29T12:33:02;25.50;99.90
7498;DHT22;3790;48.806;9.140;2023-07-29T12:38:04;25.60;99.90
7498;DHT22;3790;48.806;9.140;2023-07-29T12:43:04;25.80;99.90
7498;DHT22;3790;48.806;9.140;2023-07-29T12:48:05;25.70;99.90
7498;DHT22;3790;48.806;9.140;2023-07-29T12:53:07;25.80;99.90
7498;DHT22;3790;48.806;9.140;2023-07-29T12:58:10;25.90;99.90
7498;DHT22;3790;48.806;9.140;2023-07-29T13:03:10;26.10;99.90
7498;DHT22;3790;48.806;9.140;2023-07-29T13:08:11;25.80;99.90
7498;DHT22;3790;48.806;9.140;2023-07-29T13:13:12;25.90;99.90
7498;DHT22;3790;48.806;9.140;2023-07-29T13:18:12;26.30;99.90
7498;DHT22;3790;48.806;9.140;2023-07-29T13:23:13;26.30;99.90
7498;DHT22;3790;48.806;9.140;2023-07-29T13:28:13;26.50;99.90
7498;DHT22;3790;48.806;9.140;2023-07-29T13:33:14;26.50;99.90
7498;DHT22;3790;48.806;9.140;2023-07-29T13:38:14;26.10;99.90
7498;DHT22;3790;48.806;9.140;2023-07-29T13:43:15;26.50;99.90
7498;DHT22;3790;48.806;9.140;2023-07-29T13:48:16;25.90;99.90
7498;DHT22;3790;48.806;9.140;2023-07-29T13:53:16;25.60;99.90
7498;DHT22;3790;48.806;9.140;2023-07-29T13:58:17;25.80;99.90
7498;DHT22;3790;48.806;9.140;2023-07-29T14:03:17;25.20;99.90
7498;DHT22;3790;48.806;9.140;2023-07-29T14:08:18;25.30;99.90
7498;DHT22;3790;48.806;9.140;2023-07-29T14:13:19;25.70;99.90
7498;DHT22;3790;48.806;9.140;2023-07-29T14:18:19;26.50;99.90
7498;DHT22;3790;48.806;9.140;2023-07-29T14:23:20;26.50;99.90
7498;DHT22;3790;48.806;9.140;2023-07-29T14:28:20;26.40;99.90
7498;DHT22;3790;48.806;9.140;2023-07-29T14:33:21;26.30;99.90
7498;DHT22;3790;48.806;9.140;2023-07-29T14:38:21;25.90;99.90
7498;DHT22;3790;48.806;9.140;2023-07-29T14:43:22;26.00;99.90
7498;DHT22;3790;48.806;9.140;2023-07-29T14:48:23;25.60;99.90
7498;DHT22;3790;48.806;9.140;2023-07-29T14:53:24;25.60;99.90
7498;DHT22;3790;48.806;9.140;2023-07-29T14:58:25;25.30;99.90
7498;DHT22;3790;48.806;9.140;2023-07-29T15:03:26;25.10;99.90
7498;DHT22;3790;48.806;9.140;2023-07-29T15:08:26;25.00;99.90
7498;DHT22;3790;48.806;9.140;2023-07-29T15:13:27;24.80;99.90
7498;DHT22;3790;48.806;9.140;2023-07-29T15:18:27;24.90;99.90
7498;DHT22;3790;48.806;9.140;2023-07-29T15:23:33;25.30;99.90
7498;DHT22;3790;48.806;9.140;2023-07-29T15:28:34;25.40;99.90
7498;DHT22;3790;48.806;9.140;2023-07-29T15:33:34;25.60;99.90
7498;DHT22;3790;48.806;9.140;2023-07-29T15:38:35;26.10;99.90
7498;DHT22;3790;48.806;9.140;2023-07-29T15:43:36;26.00;99.90
7498;DHT22;3790;48.806;9.140;2023-07-29T15:48:36;26.00;99.90
7498;DHT22;3790;48.806;9.140;2023-07-29T15:53:37;25.30;99.90
7498;DHT22;3790;48.806;9.140;2023-07-29T15:58:37;25.10;99.90
7498;DHT22;3790;48.806;9.140;2023-07-29T16:03:39;25.10;99.90
7498;DHT22;3790;48.806;9.140;2023-07-29T16:08:41;24.70;99.90
7498;DHT22;3790;48.806;9.140;2023-07-29T16:13:41;24.90;99.90
7498;DHT22;3790;48.806;9.140;2023-07-29T16:18:42;25.50;99.90
7498;DHT22;3790;48.806;9.140;2023-07-29T16:23:42;26.00;99.90
7498;DHT22;3790;48.806;9.140;2023-07-29T16:28:43;25.40;99.90
7498;DHT22;3790;48.806;9.140;2023-07-29T16:33:43;26.20;99.90
7498;DHT22;3790;48.806;9.140;2023-07-29T16:38:44;27.20;99.90
7498;DHT22;3790;48.806;9.140;2023-07-29T16:43:44;26.80;99.90
7498;DHT22;3790;48.806;9.140;2023-07-29T16:48:45;27.00;99.90
7498;DHT22;3790;48.806;9.140;2023-07-29T16:53:45;26.80;99.90
7498;DHT22;3790;48.806;9.140;2023-07-29T16:58:47;27.00;99.90
7498;DHT22;3790;48.806;9.140;2023-07-29T17:03:50;26.40;99.90
7498;DHT22;3790;48.806;9.140;2023-07-29T17:08:51;25.90;99.90
7498;DHT22;3790;48.806;9.140;2023-07-29T17:13:51;25.40;99.90
7498;DHT22;3790;48.806;9.140;2023-07-29T17:18:52;25.20;99.90
7498;DHT22;3790;48.806;9.140;2023-07-29T17:23:52;25.10;99.90
7498;DHT22;3790;48.806;9.140;2023-07-29T17:28:54;25.00;99.90
7498;DHT22;3790;48.806;9.140;2023-07-29T17:33:54;24.80;99.90
7498;DHT22;3790;48.806;9.140;2023-07-29T17:38:55;24.40;99.90
7498;DHT22;3790;48.806;9.140;2023-07-29T17:43:55;23.60;99.90
7498;DHT22;3790;48.806;9.140;2023-07-29T17:48:56;23.20;99.90
7498;DHT22;3790;48.806;9.140;2023-07-29T17:53:56;23.50;99.90
7498;DHT22;3790;48.806;9.140;2023-07-29T17:58:57;23.40;99.90
7498;DHT22;3790;48.806;9.140;2023-07-29T18:03:57;23.10;99.90
7498;DHT22;3790;48.806;9.140;2023-07-29T18:08:58;23.20;99.90
7498;DHT22;3790;48.806;9.140;2023-07-29T18:13:58;23.30;99.90
7498;DHT22;3790;48.806;9.140;2023-07-29T18:18:59;23.00;99.90
7498;DHT22;3790;48.806;9.140;2023-07-29T18:23:59;22.50;99.90
7498;DHT22;3790;48.806;9.140;2023-07-29T18:29:00;22.30;99.90
7498;DHT22;3790;48.806;9.140;2023-07-29T18:34:00;22.00;99.90
7498;DHT22;3790;48.806;9.140;2023-07-29T18:39:01;21.70;99.90
7498;DHT22;3790;48.806;9.140;2023-07-29T18:44:01;21.50;99.90
7498;DHT22;3790;48.806;9.140;2023-07-29T18:49:02;21.30;99.90
7498;DHT22;3790;48.806;9.140;2023-07-29T18:54:06;21.20;99.90
7498;DHT22;3790;48.806;9.140;2023-07-29T18:59:06;21.00;99.90
7498;DHT22;3790;48.806;9.140;2023-07-29T19:04:07;20.90;99.90
7498;DHT22;3790;48.806;9.140;2023-07-29T19:09:08;20.90;99.90
7498;DHT22;3790;48.806;9.140;2023-07-29T19:14:09;20.70;99.90
7498;DHT22;3790;48.806;9.140;2023-07-29T19:19:09;20.70;99.90
7498;DHT22;3790;48.806;9.140;2023-07-29T19:24:10;20.70;99.90
7498;DHT22;3790;48.806;9.140;2023-07-29T19:29:10;20.60;99.90
7498;DHT22;3790;48.806;9.140;2023-07-29T19:34:14;20.50;99.90
7498;DHT22;3790;48.806;9.140;2023-07-29T19:39:15;20.60;99.90
7498;DHT22;3790;48.806;9.140;2023-07-29T19:44:15;20.60;99.90
7498;DHT22;3790;48.806;9.140;2023-07-29T19:49:16;20.60;99.90
7498;DHT22;3790;48.806;9.140;2023-07-29T19:54:16;20.60;99.90
7498;DHT22;3790;48.806;9.140;2023-07-29T19:59:17;20.50;99.90
7498;DHT22;3790;48.806;9.140;2023-07-29T20:04:18;20.30;99.90
7498;DHT22;3790;48.806;9.140;2023-07-29T20:09:19;20.30;99.90
7498;DHT22;3790;48.806;9.140;2023-07-29T20:14:20;20.20;99.90
7498;DHT22;3790;48.806;9.140;2023-07-29T20:19:20;20.20;99.90
7498;DHT22;3790;48.806;9.140;2023-07-29T20:24:21;20.20;99.90
7498;DHT22;3790;48.806;9.140;2023-07-29T20:29:22;20.20;99.90
7498;DHT22;3790;48.806;9.140;2023-07-29T20:34:22;20.20;99.90
7498;DHT22;3790;48.806;9.140;2023-07-29T20:39:23;20.20;99.90
7498;DHT22;3790;48.806;9.140;2023-07-29T20:44:27;20.20;99.90
7498;DHT22;3790;48.806;9.140;2023-07-29T20:49:27;20.20;99.90
7498;DHT22;3790;48.806;9.140;2023-07-29T20:54:28;20.10;99.90
7498;DHT22;3790;48.806;9.140;2023-07-29T20:59:31;20.20;99.90
7498;DHT22;3790;48.806;9.140;2023-07-29T21:04:32;20.10;99.90
7498;DHT22;3790;48.806;9.140;2023-07-29T21:09:33;20.20;99.90
7498;DHT22;3790;48.806;9.140;2023-07-29T21:14:33;20.10;99.90
7498;DHT22;3790;48.806;9.140;2023-07-29T21:19:34;20.20;99.90
7498;DHT22;3790;48.806;9.140;2023-07-29T21:24:34;20.10;99.90
7498;DHT22;3790;48.806;9.140;2023-07-29T21:29:36;20.10;99.90
7498;DHT22;3790;48.806;9.140;2023-07-29T21:34:37;20.20;99.90
7498;DHT22;3790;48.806;9.140;2023-07-29T21:39:37;20.20;99.90
7498;DHT22;3790;48.806;9.140;2023-07-29T21:44:38;20.30;99.90
7498;DHT22;3790;48.806;9.140;2023-07-29T21:49:38;20.40;99.90
7498;DHT22;3790;48.806;9.140;2023-07-29T21:54:41;20.40;99.90
7498;DHT22;3790;48.806;9.140;2023-07-29T21:59:41;20.40;99.90
7498;DHT22;3790;48.806;9.140;2023-07-29T22:04:43;20.30;99.90
7498;DHT22;3790;48.806;9.140;2023-07-29T22:09:43;20.30;99.90
7498;DHT22;3790;48.806;9.140;2023-07-29T22:14:44;20.30;99.90
7498;DHT22;3790;48.806;9.140;2023-07-29T22:19:45;20.20;99.90
7498;DHT22;3790;48.806;9.140;2023-07-29T22:24:45;20.30;99.90
7498;DHT22;3790;48.806;9.140;2023-07-29T22:29:46;20.20;99.90
7498;DHT22;3790;48.806;9.140;2023-07-29T22:34:47;20.10;99.90
7498;DHT22;3790;48.806;9.140;2023-07-29T22:39:47;20.00;99.90
7498;DHT22;3790;48.806;9.140;2023-07-29T22:44:48;19.50;99.90
7498;DHT22;3790;48.806;9.140;2023-07-29T22:49:49;19.30;99.90
7498;DHT22;3790;48.806;9.140;2023-07-29T22:54:49;19.20;99.90
7498;DHT22;3790;48.806;9.140;2023-07-29T22:59:50;19.10;99.90
7498;DHT22;3790;48.806;9.140;2023-07-29T23:04:50;18.80;99.90
7498;DHT22;3790;48.806;9.140;2023-07-29T23:09:51;18.10;99.90
7498;DHT22;3790;48.806;9.140;2023-07-29T23:14:51;17.80;99.90
7498;DHT22;3790;48.806;9.140;2023-07-29T23:19:52;17.80;99.90
7498;DHT22;3790;48.806;9.140;2023-07-29T23:24:52;17.80;99.90
7498;DHT22;3790;48.806;9.140;2023-07-29T23:29:53;17.80;99.90
7498;DHT22;3790;48.806;9.140;2023-07-29T23:34:54;17.60;99.90
7498;DHT22;3790;48.806;9.140;2023-07-29T23:39:57;17.10;99.90
7498;DHT22;3790;48.806;9.140;2023-07-29T23:44:57;16.80;99.90
7498;DHT22;3790;48.806;9.140;2023-07-29T23:49:58;16.90;99.90
7498;DHT22;3790;48.806;9.140;2023-07-29T23:54:58;17.00;99.90
7498;DHT22;3790;48.806;9.140;2023-07-29T23:59:59;17.00;99.90
